sensor_id;sensor_type;location;lat;lon;timestamp;temperature;humidity
30150;DHT22;16962;48.646;9.026;2023-05-29T00:00:06;13.10;99.90
30150;DHT22;16962;48.646;9.026;2023-05-29T00:02:56;13.10;99.30
30150;DHT22;16962;48.646;9.026;2023-05-29T00:05:45;13.10;99.90
30150;DHT22;16962;48.646;9.026;2023-05-29T00:08:35;13.00;99.90
30150;DHT22;16962;48.646;9.026;2023-05-29T00:11:24;12.80;99.90
30150;DHT22;16962;48.646;9.026;2023-05-29T00:14:12;12.60;99.90
30150;DHT22;16962;48.646;9.026;2023-05-29T00:17:00;12.50;99.90
30150;DHT22;16962;48.646;9.026;2023-05-29T00:19:55;12.30;99.90
30150;DHT22;16962;48.646;9.026;2023-05-29T00:22:45;12.20;99.90
30150;DHT22;16962;48.646;9.026;2023-05-29T00:25:32;12.10;99.90
30150;DHT22;16962;48.646;9.026;2023-05-29T00:28:20;12.40;99.90
30150;DHT22;16962;48.646;9.026;2023-05-29T00:31:09;12.40;99.90
30150;DHT22;16962;48.646;9.026;2023-05-29T00:33:59;12.50;99.90
30150;DHT22;16962;48.646;9.026;2023-05-29T00:36:46;12.70;99.90
30150;DHT22;16962;48.646;9.026;2023-05-29T00:39:34;12.70;99.90
30150;DHT22;16962;48.646;9.026;2023-05-29T00:42:24;12.70;94.40
30150;DHT22;16962;48.646;9.026;2023-05-29T00:45:31;12.70;95.30
30150;DHT22;16962;48.646;9.026;2023-05-29T00:48:23;12.60;94.30
30150;DHT22;16962;48.646;9.026;2023-05-29T00:51:14;12.40;97.30
30150;DHT22;16962;48.646;9.026;2023-05-29T00:54:04;12.20;99.90
30150;DHT22;16962;48.646;9.026;2023-05-29T00:56:54;12.00;99.90
30150;DHT22;16962;48.646;9.026;2023-05-29T00:59:44;11.90;99.90
30150;DHT22;16962;48.646;9.026;2023-05-29T01:02:35;11.80;99.90
30150;DHT22;16962;48.646;9.026;2023-05-29T01:05:23;11.70;99.90
30150;DHT22;16962;48.646;9.026;2023-05-29T01:08:13;11.70;99.90
30150;DHT22;16962;48.646;9.026;2023-05-29T01:11:12;11.60;99.90
30150;DHT22;16962;48.646;9.026;2023-05-29T01:14:05;11.60;99.90
30150;DHT22;16962;48.646;9.026;2023-05-29T01:17:03;11.50;99.90
30150;DHT22;16962;48.646;9.026;2023-05-29T01:26:38;11.20;99.90
30150;DHT22;16962;48.646;9.026;2023-05-29T01:29:32;11.10;99.90
30150;DHT22;16962;48.646;9.026;2023-05-29T01:32:22;10.90;99.90
30150;DHT22;16962;48.646;9.026;2023-05-29T01:35:12;10.80;99.90
30150;DHT22;16962;48.646;9.026;2023-05-29T01:37:59;10.70;99.90
30150;DHT22;16962;48.646;9.026;2023-05-29T01:40:47;10.70;99.90
30150;DHT22;16962;48.646;9.026;2023-05-29T01:43:35;10.60;99.90
30150;DHT22;16962;48.646;9.026;2023-05-29T01:46:25;10.60;99.90
30150;DHT22;16962;48.646;9.026;2023-05-29T01:49:12;10.50;99.90
30150;DHT22;16962;48.646;9.026;2023-05-29T01:52:00;10.60;99.90
30150;DHT22;16962;48.646;9.026;2023-05-29T01:54:50;10.60;99.90
30150;DHT22;16962;48.646;9.026;2023-05-29T01:57:40;10.60;99.90
30150;DHT22;16962;48.646;9.026;2023-05-29T02:00:28;10.50;99.90
30150;DHT22;16962;48.646;9.026;2023-05-29T02:03:19;10.30;99.90
30150;DHT22;16962;48.646;9.026;2023-05-29T02:06:11;10.20;99.90
30150;DHT22;16962;48.646;9.026;2023-05-29T02:08:58;10.20;1.00
30150;DHT22;16962;48.646;9.026;2023-05-29T02:11:47;10.10;1.00
30150;DHT22;16962;48.646;9.026;2023-05-29T02:14:35;10.00;1.00
30150;DHT22;16962;48.646;9.026;2023-05-29T02:17:28;9.90;1.00
30150;DHT22;16962;48.646;9.026;2023-05-29T02:20:16;9.90;1.00
30150;DHT22;16962;48.646;9.026;2023-05-29T02:23:09;9.90;1.00
30150;DHT22;16962;48.646;9.026;2023-05-29T02:25:56;9.90;1.00
30150;DHT22;16962;48.646;9.026;2023-05-29T02:28:46;9.80;1.00
30150;DHT22;16962;48.646;9.026;2023-05-29T02:31:33;9.90;1.00
30150;DHT22;16962;48.646;9.026;2023-05-29T02:34:23;9.90;1.00
30150;DHT22;16962;48.646;9.026;2023-05-29T02:37:10;9.90;1.00
30150;DHT22;16962;48.646;9.026;2023-05-29T02:39:57;10.00;1.00
30150;DHT22;16962;48.646;9.026;2023-05-29T02:42:47;10.10;1.00
30150;DHT22;16962;48.646;9.026;2023-05-29T02:45:35;9.90;1.00
30150;DHT22;16962;48.646;9.026;2023-05-29T02:48:22;9.80;1.00
30150;DHT22;16962;48.646;9.026;2023-05-29T02:51:09;9.80;1.00
30150;DHT22;16962;48.646;9.026;2023-05-29T02:53:56;9.70;1.00
30150;DHT22;16962;48.646;9.026;2023-05-29T02:56:44;9.60;1.00
30150;DHT22;16962;48.646;9.026;2023-05-29T02:59:34;9.50;14.00
30150;DHT22;16962;48.646;9.026;2023-05-29T03:02:22;9.50;66.70
30150;DHT22;16962;48.646;9.026;2023-05-29T03:05:09;9.40;99.90
30150;DHT22;16962;48.646;9.026;2023-05-29T03:07:57;9.40;99.90
30150;DHT22;16962;48.646;9.026;2023-05-29T03:10:44;9.40;99.90
30150;DHT22;16962;48.646;9.026;2023-05-29T03:13:54;9.40;99.90
30150;DHT22;16962;48.646;9.026;2023-05-29T03:16:43;9.40;99.90
30150;DHT22;16962;48.646;9.026;2023-05-29T03:19:30;9.30;99.90
30150;DHT22;16962;48.646;9.026;2023-05-29T03:22:17;9.40;99.90
30150;DHT22;16962;48.646;9.026;2023-05-29T03:25:04;9.30;99.90
30150;DHT22;16962;48.646;9.026;2023-05-29T03:27:52;9.20;99.90
30150;DHT22;16962;48.646;9.026;2023-05-29T03:30:40;9.20;99.90
30150;DHT22;16962;48.646;9.026;2023-05-29T03:33:29;9.20;99.90
30150;DHT22;16962;48.646;9.026;2023-05-29T03:36:19;9.30;99.90
30150;DHT22;16962;48.646;9.026;2023-05-29T03:39:06;9.50;99.90
30150;DHT22;16962;48.646;9.026;2023-05-29T03:41:53;9.70;99.90
30150;DHT22;16962;48.646;9.026;2023-05-29T03:44:43;9.80;99.90
30150;DHT22;16962;48.646;9.026;2023-05-29T03:47:30;9.70;99.90
30150;DHT22;16962;48.646;9.026;2023-05-29T03:50:17;9.70;99.90
30150;DHT22;16962;48.646;9.026;2023-05-29T03:53:05;9.50;99.90
30150;DHT22;16962;48.646;9.026;2023-05-29T03:55:52;9.40;99.90
30150;DHT22;16962;48.646;9.026;2023-05-29T03:58:40;9.40;99.90
30150;DHT22;16962;48.646;9.026;2023-05-29T04:02:01;9.30;99.90
30150;DHT22;16962;48.646;9.026;2023-05-29T04:05:02;9.40;99.90
30150;DHT22;16962;48.646;9.026;2023-05-29T04:07:49;9.60;99.90
30150;DHT22;16962;48.646;9.026;2023-05-29T04:10:50;9.60;99.90
30150;DHT22;16962;48.646;9.026;2023-05-29T04:14:04;9.60;99.90
30150;DHT22;16962;48.646;9.026;2023-05-29T04:16:52;9.60;99.90
30150;DHT22;16962;48.646;9.026;2023-05-29T04:19:39;9.60;99.90
30150;DHT22;16962;48.646;9.026;2023-05-29T04:22:26;9.60;99.90
30150;DHT22;16962;48.646;9.026;2023-05-29T04:25:14;9.70;99.90
30150;DHT22;16962;48.646;9.026;2023-05-29T04:28:02;9.70;99.90
30150;DHT22;16962;48.646;9.026;2023-05-29T04:30:50;9.90;99.90
30150;DHT22;16962;48.646;9.026;2023-05-29T04:33:42;10.00;99.90
30150;DHT22;16962;48.646;9.026;2023-05-29T04:36:33;10.10;99.90
30150;DHT22;16962;48.646;9.026;2023-05-29T04:39:25;10.10;99.90
30150;DHT22;16962;48.646;9.026;2023-05-29T04:42:13;10.10;99.90
30150;DHT22;16962;48.646;9.026;2023-05-29T04:45:06;10.10;99.90
30150;DHT22;16962;48.646;9.026;2023-05-29T04:47:53;10.10;99.90
30150;DHT22;16962;48.646;9.026;2023-05-29T04:50:42;10.30;99.90
30150;DHT22;16962;48.646;9.026;2023-05-29T04:53:32;10.40;99.90
30150;DHT22;16962;48.646;9.026;2023-05-29T04:56:20;10.50;99.90
30150;DHT22;16962;48.646;9.026;2023-05-29T04:59:07;10.70;99.90
30150;DHT22;16962;48.646;9.026;2023-05-29T05:01:55;10.80;99.90
30150;DHT22;16962;48.646;9.026;2023-05-29T05:04:43;10.90;99.90
30150;DHT22;16962;48.646;9.026;2023-05-29T05:07:31;11.00;99.90
30150;DHT22;16962;48.646;9.026;2023-05-29T05:10:21;11.10;47.90
30150;DHT22;16962;48.646;9.026;2023-05-29T05:13:08;11.10;1.00
30150;DHT22;16962;48.646;9.026;2023-05-29T05:15:56;11.20;1.00
30150;DHT22;16962;48.646;9.026;2023-05-29T05:18:43;11.30;1.00
30150;DHT22;16962;48.646;9.026;2023-05-29T05:21:31;11.40;1.00
30150;DHT22;16962;48.646;9.026;2023-05-29T05:24:22;11.50;1.00
30150;DHT22;16962;48.646;9.026;2023-05-29T05:27:11;11.70;1.00
30150;DHT22;16962;48.646;9.026;2023-05-29T05:30:03;11.80;1.00
30150;DHT22;16962;48.646;9.026;2023-05-29T05:32:53;12.10;1.00
30150;DHT22;16962;48.646;9.026;2023-05-29T05:35:41;12.20;1.00
30150;DHT22;16962;48.646;9.026;2023-05-29T05:38:28;12.40;1.00
30150;DHT22;16962;48.646;9.026;2023-05-29T05:41:15;12.40;1.00
30150;DHT22;16962;48.646;9.026;2023-05-29T05:44:02;12.50;1.00
30150;DHT22;16962;48.646;9.026;2023-05-29T05:46:50;12.60;1.00
30150;DHT22;16962;48.646;9.026;2023-05-29T05:49:39;12.70;1.00
30150;DHT22;16962;48.646;9.026;2023-05-29T05:52:26;12.90;1.00
30150;DHT22;16962;48.646;9.026;2023-05-29T05:55:19;13.10;99.90
30150;DHT22;16962;48.646;9.026;2023-05-29T05:58:07;13.30;99.90
30150;DHT22;16962;48.646;9.026;2023-05-29T06:00:55;13.50;99.90
30150;DHT22;16962;48.646;9.026;2023-05-29T06:03:46;13.60;99.90
30150;DHT22;16962;48.646;9.026;2023-05-29T06:06:33;13.80;99.90
30150;DHT22;16962;48.646;9.026;2023-05-29T06:09:24;13.90;99.90
30150;DHT22;16962;48.646;9.026;2023-05-29T06:12:14;14.00;99.90
30150;DHT22;16962;48.646;9.026;2023-05-29T06:15:03;14.20;99.90
30150;DHT22;16962;48.646;9.026;2023-05-29T06:17:52;14.20;99.90
30150;DHT22;16962;48.646;9.026;2023-05-29T06:20:42;14.40;99.90
30150;DHT22;16962;48.646;9.026;2023-05-29T06:23:32;14.50;99.90
30150;DHT22;16962;48.646;9.026;2023-05-29T06:26:21;14.70;99.90
30150;DHT22;16962;48.646;9.026;2023-05-29T06:29:08;14.90;99.90
30150;DHT22;16962;48.646;9.026;2023-05-29T06:31:56;15.00;99.90
30150;DHT22;16962;48.646;9.026;2023-05-29T06:34:43;15.20;99.90
30150;DHT22;16962;48.646;9.026;2023-05-29T06:37:31;15.40;99.90
30150;DHT22;16962;48.646;9.026;2023-05-29T06:40:18;15.60;99.90
30150;DHT22;16962;48.646;9.026;2023-05-29T06:43:18;15.90;99.90
30150;DHT22;16962;48.646;9.026;2023-05-29T06:46:09;16.20;99.90
30150;DHT22;16962;48.646;9.026;2023-05-29T06:48:59;16.40;99.90
30150;DHT22;16962;48.646;9.026;2023-05-29T06:51:48;16.70;99.90
30150;DHT22;16962;48.646;9.026;2023-05-29T06:54:35;16.90;99.90
30150;DHT22;16962;48.646;9.026;2023-05-29T06:57:24;17.20;99.90
30150;DHT22;16962;48.646;9.026;2023-05-29T07:00:12;17.70;99.90
30150;DHT22;16962;48.646;9.026;2023-05-29T07:02:59;18.30;93.80
30150;DHT22;16962;48.646;9.026;2023-05-29T07:05:49;18.60;71.00
30150;DHT22;16962;48.646;9.026;2023-05-29T07:08:37;18.80;48.00
30150;DHT22;16962;48.646;9.026;2023-05-29T07:11:24;19.30;47.40
30150;DHT22;16962;48.646;9.026;2023-05-29T07:14:13;19.60;28.70
30150;DHT22;16962;48.646;9.026;2023-05-29T07:17:01;20.00;23.40
30150;DHT22;16962;48.646;9.026;2023-05-29T07:19:50;20.30;11.20
30150;DHT22;16962;48.646;9.026;2023-05-29T07:22:38;20.80;3.80
30150;DHT22;16962;48.646;9.026;2023-05-29T07:25:25;21.00;1.00
30150;DHT22;16962;48.646;9.026;2023-05-29T07:28:24;21.50;1.00
30150;DHT22;16962;48.646;9.026;2023-05-29T07:31:17;21.80;1.00
30150;DHT22;16962;48.646;9.026;2023-05-29T07:38:57;22.00;1.00
30150;DHT22;16962;48.646;9.026;2023-05-29T07:46:01;22.40;1.00
30150;DHT22;16962;48.646;9.026;2023-05-29T07:49:17;22.90;1.00
30150;DHT22;16962;48.646;9.026;2023-05-29T07:52:28;23.10;1.00
30150;DHT22;16962;48.646;9.026;2023-05-29T07:56:21;23.40;1.00
30150;DHT22;16962;48.646;9.026;2023-05-29T07:59:19;23.80;1.00
30150;DHT22;16962;48.646;9.026;2023-05-29T08:02:50;24.00;1.00
30150;DHT22;16962;48.646;9.026;2023-05-29T08:09:39;24.30;1.00
30150;DHT22;16962;48.646;9.026;2023-05-29T08:12:40;23.90;1.00
30150;DHT22;16962;48.646;9.026;2023-05-29T08:23:09;24.30;1.00
30150;DHT22;16962;48.646;9.026;2023-05-29T08:25:57;24.40;1.00
30150;DHT22;16962;48.646;9.026;2023-05-29T08:28:45;24.70;1.00
30150;DHT22;16962;48.646;9.026;2023-05-29T08:31:33;25.10;1.00
30150;DHT22;16962;48.646;9.026;2023-05-29T08:34:21;25.90;1.00
30150;DHT22;16962;48.646;9.026;2023-05-29T08:37:11;25.70;1.00
30150;DHT22;16962;48.646;9.026;2023-05-29T08:39:59;25.90;1.00
30150;DHT22;16962;48.646;9.026;2023-05-29T08:43:22;26.00;1.00
30150;DHT22;16962;48.646;9.026;2023-05-29T08:46:09;26.20;1.00
30150;DHT22;16962;48.646;9.026;2023-05-29T08:48:58;26.70;1.00
30150;DHT22;16962;48.646;9.026;2023-05-29T08:52:31;27.10;1.00
30150;DHT22;16962;48.646;9.026;2023-05-29T08:55:24;27.20;1.00
30150;DHT22;16962;48.646;9.026;2023-05-29T08:58:13;27.10;1.00
30150;DHT22;16962;48.646;9.026;2023-05-29T09:01:01;27.50;1.00
30150;DHT22;16962;48.646;9.026;2023-05-29T09:03:49;27.30;1.00
30150;DHT22;16962;48.646;9.026;2023-05-29T09:06:36;27.10;1.00
30150;DHT22;16962;48.646;9.026;2023-05-29T09:09:25;27.30;1.00
30150;DHT22;16962;48.646;9.026;2023-05-29T09:12:16;27.30;1.00
30150;DHT22;16962;48.646;9.026;2023-05-29T09:15:26;27.20;1.00
30150;DHT22;16962;48.646;9.026;2023-05-29T09:18:16;27.70;1.00
30150;DHT22;16962;48.646;9.026;2023-05-29T09:21:08;27.80;1.00
30150;DHT22;16962;48.646;9.026;2023-05-29T09:24:03;27.20;1.00
30150;DHT22;16962;48.646;9.026;2023-05-29T09:26:51;27.00;1.00
30150;DHT22;16962;48.646;9.026;2023-05-29T09:29:43;27.30;1.00
30150;DHT22;16962;48.646;9.026;2023-05-29T09:32:33;27.50;1.00
30150;DHT22;16962;48.646;9.026;2023-05-29T09:35:21;28.00;1.00
30150;DHT22;16962;48.646;9.026;2023-05-29T09:38:10;28.10;1.00
30150;DHT22;16962;48.646;9.026;2023-05-29T09:41:23;27.80;1.00
30150;DHT22;16962;48.646;9.026;2023-05-29T09:44:13;28.20;1.00
30150;DHT22;16962;48.646;9.026;2023-05-29T09:47:01;28.60;1.00
30150;DHT22;16962;48.646;9.026;2023-05-29T09:49:49;28.00;1.00
30150;DHT22;16962;48.646;9.026;2023-05-29T09:52:36;27.80;1.00
30150;DHT22;16962;48.646;9.026;2023-05-29T09:55:25;27.30;1.00
30150;DHT22;16962;48.646;9.026;2023-05-29T09:58:14;27.20;1.00
30150;DHT22;16962;48.646;9.026;2023-05-29T10:01:02;27.40;1.00
30150;DHT22;16962;48.646;9.026;2023-05-29T10:03:50;27.70;1.00
30150;DHT22;16962;48.646;9.026;2023-05-29T10:06:41;28.20;1.00
30150;DHT22;16962;48.646;9.026;2023-05-29T10:09:29;27.90;1.00
30150;DHT22;16962;48.646;9.026;2023-05-29T10:12:20;28.20;1.00
30150;DHT22;16962;48.646;9.026;2023-05-29T10:15:15;28.20;1.00
30150;DHT22;16962;48.646;9.026;2023-05-29T10:18:04;28.50;1.00
30150;DHT22;16962;48.646;9.026;2023-05-29T10:20:55;28.80;1.00
30150;DHT22;16962;48.646;9.026;2023-05-29T10:23:48;29.40;1.00
30150;DHT22;16962;48.646;9.026;2023-05-29T10:26:38;29.70;1.00
30150;DHT22;16962;48.646;9.026;2023-05-29T10:29:43;29.70;1.00
30150;DHT22;16962;48.646;9.026;2023-05-29T10:32:42;29.60;1.00
30150;DHT22;16962;48.646;9.026;2023-05-29T10:38:55;28.80;1.00
30150;DHT22;16962;48.646;9.026;2023-05-29T10:41:44;28.40;1.00
30150;DHT22;16962;48.646;9.026;2023-05-29T10:47:23;29.00;1.00
30150;DHT22;16962;48.646;9.026;2023-05-29T10:50:10;29.10;1.00
30150;DHT22;16962;48.646;9.026;2023-05-29T10:53:00;28.90;1.00
30150;DHT22;16962;48.646;9.026;2023-05-29T10:55:48;28.30;1.00
30150;DHT22;16962;48.646;9.026;2023-05-29T10:58:35;28.70;1.00
30150;DHT22;16962;48.646;9.026;2023-05-29T11:01:24;28.50;1.00
30150;DHT22;16962;48.646;9.026;2023-05-29T11:07:05;27.70;1.00
30150;DHT22;16962;48.646;9.026;2023-05-29T11:10:11;28.30;1.00
30150;DHT22;16962;48.646;9.026;2023-05-29T11:13:03;28.70;1.00
30150;DHT22;16962;48.646;9.026;2023-05-29T11:16:19;28.80;1.00
30150;DHT22;16962;48.646;9.026;2023-05-29T11:19:07;28.60;1.00
30150;DHT22;16962;48.646;9.026;2023-05-29T11:22:14;29.10;1.00
30150;DHT22;16962;48.646;9.026;2023-05-29T11:25:13;29.60;1.00
30150;DHT22;16962;48.646;9.026;2023-05-29T11:28:02;30.00;1.00
30150;DHT22;16962;48.646;9.026;2023-05-29T11:30:53;29.60;1.00
30150;DHT22;16962;48.646;9.026;2023-05-29T11:33:48;30.10;1.00
30150;DHT22;16962;48.646;9.026;2023-05-29T11:36:36;30.10;1.00
30150;DHT22;16962;48.646;9.026;2023-05-29T11:39:28;30.20;1.00
30150;DHT22;16962;48.646;9.026;2023-05-29T11:42:15;31.00;1.00
30150;DHT22;16962;48.646;9.026;2023-05-29T11:45:13;31.70;1.00
30150;DHT22;16962;48.646;9.026;2023-05-29T11:48:02;31.60;1.00
30150;DHT22;16962;48.646;9.026;2023-05-29T11:50:50;30.60;1.00
30150;DHT22;16962;48.646;9.026;2023-05-29T11:53:41;30.30;1.00
30150;DHT22;16962;48.646;9.026;2023-05-29T11:56:29;29.80;1.00
30150;DHT22;16962;48.646;9.026;2023-05-29T11:59:17;30.50;1.00
30150;DHT22;16962;48.646;9.026;2023-05-29T12:02:04;30.70;1.00
30150;DHT22;16962;48.646;9.026;2023-05-29T12:05:05;31.50;1.00
30150;DHT22;16962;48.646;9.026;2023-05-29T12:07:56;32.20;1.00
30150;DHT22;16962;48.646;9.026;2023-05-29T12:10:48;32.50;1.00
30150;DHT22;16962;48.646;9.026;2023-05-29T12:13:36;31.90;1.00
30150;DHT22;16962;48.646;9.026;2023-05-29T12:16:24;31.40;1.00
30150;DHT22;16962;48.646;9.026;2023-05-29T12:19:13;31.60;1.00
30150;DHT22;16962;48.646;9.026;2023-05-29T12:22:01;31.50;1.00
30150;DHT22;16962;48.646;9.026;2023-05-29T12:24:51;31.10;1.00
30150;DHT22;16962;48.646;9.026;2023-05-29T12:27:40;31.10;1.00
30150;DHT22;16962;48.646;9.026;2023-05-29T12:30:37;30.70;1.00
30150;DHT22;16962;48.646;9.026;2023-05-29T12:33:31;31.30;1.00
30150;DHT22;16962;48.646;9.026;2023-05-29T12:36:18;32.20;1.00
30150;DHT22;16962;48.646;9.026;2023-05-29T12:39:08;32.50;1.00
30150;DHT22;16962;48.646;9.026;2023-05-29T12:41:56;31.40;1.00
30150;DHT22;16962;48.646;9.026;2023-05-29T12:44:46;31.20;1.00
30150;DHT22;16962;48.646;9.026;2023-05-29T12:47:34;31.50;1.00
30150;DHT22;16962;48.646;9.026;2023-05-29T12:50:26;31.10;1.00
30150;DHT22;16962;48.646;9.026;2023-05-29T12:53:16;30.70;1.00
30150;DHT22;16962;48.646;9.026;2023-05-29T12:56:05;30.60;1.00
30150;DHT22;16962;48.646;9.026;2023-05-29T12:58:54;29.90;1.00
30150;DHT22;16962;48.646;9.026;2023-05-29T13:01:41;30.10;1.00
30150;DHT22;16962;48.646;9.026;2023-05-29T13:04:31;31.10;1.00
30150;DHT22;16962;48.646;9.026;2023-05-29T13:07:23;31.30;1.00
30150;DHT22;16962;48.646;9.026;2023-05-29T13:10:10;30.50;1.00
30150;DHT22;16962;48.646;9.026;2023-05-29T13:12:59;30.50;1.00
30150;DHT22;16962;48.646;9.026;2023-05-29T13:15:46;30.30;1.00
30150;DHT22;16962;48.646;9.026;2023-05-29T13:18:34;31.10;1.00
30150;DHT22;16962;48.646;9.026;2023-05-29T13:21:21;30.60;1.00
30150;DHT22;16962;48.646;9.026;2023-05-29T13:24:08;29.90;1.00
30150;DHT22;16962;48.646;9.026;2023-05-29T13:26:55;29.80;1.00
30150;DHT22;16962;48.646;9.026;2023-05-29T13:29:43;29.90;1.00
30150;DHT22;16962;48.646;9.026;2023-05-29T13:32:38;30.50;1.00
30150;DHT22;16962;48.646;9.026;2023-05-29T13:35:25;30.70;1.00
30150;DHT22;16962;48.646;9.026;2023-05-29T13:38:13;31.10;1.00
30150;DHT22;16962;48.646;9.026;2023-05-29T13:41:00;31.10;1.00
30150;DHT22;16962;48.646;9.026;2023-05-29T13:43:50;31.10;1.00
30150;DHT22;16962;48.646;9.026;2023-05-29T13:46:37;30.90;1.00
30150;DHT22;16962;48.646;9.026;2023-05-29T13:49:26;30.10;1.00
30150;DHT22;16962;48.646;9.026;2023-05-29T13:52:14;29.20;1.00
30150;DHT22;16962;48.646;9.026;2023-05-29T13:55:03;29.80;1.00
30150;DHT22;16962;48.646;9.026;2023-05-29T13:57:58;29.80;1.00
30150;DHT22;16962;48.646;9.026;2023-05-29T14:00:46;30.00;1.00
30150;DHT22;16962;48.646;9.026;2023-05-29T14:03:35;30.70;1.00
30150;DHT22;16962;48.646;9.026;2023-05-29T14:06:23;31.40;1.00
30150;DHT22;16962;48.646;9.026;2023-05-29T14:09:10;31.40;1.00
30150;DHT22;16962;48.646;9.026;2023-05-29T14:11:59;31.00;1.00
30150;DHT22;16962;48.646;9.026;2023-05-29T14:14:46;31.00;1.00
30150;DHT22;16962;48.646;9.026;2023-05-29T14:17:33;30.10;1.00
30150;DHT22;16962;48.646;9.026;2023-05-29T14:20:21;30.00;1.00
30150;DHT22;16962;48.646;9.026;2023-05-29T14:23:08;29.90;1.00
30150;DHT22;16962;48.646;9.026;2023-05-29T14:26:01;29.70;1.00
30150;DHT22;16962;48.646;9.026;2023-05-29T14:28:51;29.70;1.00
30150;DHT22;16962;48.646;9.026;2023-05-29T14:31:52;30.20;1.00
30150;DHT22;16962;48.646;9.026;2023-05-29T14:34:39;30.20;1.00
30150;DHT22;16962;48.646;9.026;2023-05-29T14:37:27;30.90;1.00
30150;DHT22;16962;48.646;9.026;2023-05-29T14:40:15;30.90;1.00
30150;DHT22;16962;48.646;9.026;2023-05-29T14:43:03;30.40;1.00
30150;DHT22;16962;48.646;9.026;2023-05-29T14:45:50;29.80;1.00
30150;DHT22;16962;48.646;9.026;2023-05-29T14:48:37;29.90;1.00
30150;DHT22;16962;48.646;9.026;2023-05-29T14:51:25;29.90;1.00
30150;DHT22;16962;48.646;9.026;2023-05-29T14:54:12;30.60;1.00
30150;DHT22;16962;48.646;9.026;2023-05-29T14:56:59;30.60;1.00
30150;DHT22;16962;48.646;9.026;2023-05-29T14:59:47;31.10;1.00
30150;DHT22;16962;48.646;9.026;2023-05-29T15:02:34;30.20;1.00
30150;DHT22;16962;48.646;9.026;2023-05-29T15:05:21;30.00;1.00
30150;DHT22;16962;48.646;9.026;2023-05-29T15:08:09;30.00;1.00
30150;DHT22;16962;48.646;9.026;2023-05-29T15:10:59;30.00;1.00
30150;DHT22;16962;48.646;9.026;2023-05-29T15:13:46;29.60;1.00
30150;DHT22;16962;48.646;9.026;2023-05-29T15:16:33;29.00;1.00
30150;DHT22;16962;48.646;9.026;2023-05-29T15:19:20;28.60;1.00
30150;DHT22;16962;48.646;9.026;2023-05-29T15:22:08;28.40;1.00
30150;DHT22;16962;48.646;9.026;2023-05-29T15:24:55;28.70;1.00
30150;DHT22;16962;48.646;9.026;2023-05-29T15:27:42;28.50;1.00
30150;DHT22;16962;48.646;9.026;2023-05-29T15:30:30;28.80;1.00
30150;DHT22;16962;48.646;9.026;2023-05-29T15:33:19;28.30;1.00
30150;DHT22;16962;48.646;9.026;2023-05-29T15:36:06;28.80;1.00
30150;DHT22;16962;48.646;9.026;2023-05-29T15:38:55;29.20;1.00
30150;DHT22;16962;48.646;9.026;2023-05-29T15:41:42;29.30;1.00
30150;DHT22;16962;48.646;9.026;2023-05-29T15:44:30;29.20;1.00
30150;DHT22;16962;48.646;9.026;2023-05-29T15:47:17;28.70;1.00
30150;DHT22;16962;48.646;9.026;2023-05-29T15:50:08;28.40;1.00
30150;DHT22;16962;48.646;9.026;2023-05-29T15:52:55;27.80;1.00
30150;DHT22;16962;48.646;9.026;2023-05-29T15:55:44;27.70;1.00
30150;DHT22;16962;48.646;9.026;2023-05-29T15:58:31;27.10;1.00
30150;DHT22;16962;48.646;9.026;2023-05-29T16:01:22;27.10;1.00
30150;DHT22;16962;48.646;9.026;2023-05-29T16:04:11;27.10;1.00
30150;DHT22;16962;48.646;9.026;2023-05-29T16:07:00;27.10;1.00
30150;DHT22;16962;48.646;9.026;2023-05-29T16:09:47;26.80;1.00
30150;DHT22;16962;48.646;9.026;2023-05-29T16:12:34;26.40;1.00
30150;DHT22;16962;48.646;9.026;2023-05-29T16:15:22;26.10;1.00
30150;DHT22;16962;48.646;9.026;2023-05-29T16:18:10;25.80;1.00
30150;DHT22;16962;48.646;9.026;2023-05-29T16:20:57;25.70;1.00
30150;DHT22;16962;48.646;9.026;2023-05-29T16:23:46;25.70;1.00
30150;DHT22;16962;48.646;9.026;2023-05-29T16:26:36;25.70;1.00
30150;DHT22;16962;48.646;9.026;2023-05-29T16:29:23;25.70;1.00
30150;DHT22;16962;48.646;9.026;2023-05-29T16:32:11;25.40;1.00
30150;DHT22;16962;48.646;9.026;2023-05-29T16:34:58;25.20;1.00
30150;DHT22;16962;48.646;9.026;2023-05-29T16:37:45;24.80;1.00
30150;DHT22;16962;48.646;9.026;2023-05-29T16:40:35;24.30;1.00
30150;DHT22;16962;48.646;9.026;2023-05-29T16:43:25;24.10;1.00
30150;DHT22;16962;48.646;9.026;2023-05-29T16:46:15;23.90;1.00
30150;DHT22;16962;48.646;9.026;2023-05-29T16:49:03;23.80;1.00
30150;DHT22;16962;48.646;9.026;2023-05-29T16:51:50;23.50;1.00
30150;DHT22;16962;48.646;9.026;2023-05-29T16:54:39;23.30;1.00
30150;DHT22;16962;48.646;9.026;2023-05-29T16:57:30;23.20;1.00
30150;DHT22;16962;48.646;9.026;2023-05-29T17:00:20;23.00;1.00
30150;DHT22;16962;48.646;9.026;2023-05-29T17:03:08;22.90;1.00
30150;DHT22;16962;48.646;9.026;2023-05-29T17:05:55;22.80;1.00
30150;DHT22;16962;48.646;9.026;2023-05-29T17:08:44;22.60;1.00
30150;DHT22;16962;48.646;9.026;2023-05-29T17:11:33;22.60;1.00
30150;DHT22;16962;48.646;9.026;2023-05-29T17:14:23;22.50;1.00
30150;DHT22;16962;48.646;9.026;2023-05-29T17:17:11;22.40;1.00
30150;DHT22;16962;48.646;9.026;2023-05-29T17:20:05;22.40;1.00
30150;DHT22;16962;48.646;9.026;2023-05-29T17:22:57;22.30;1.00
30150;DHT22;16962;48.646;9.026;2023-05-29T17:25:44;22.20;1.00
30150;DHT22;16962;48.646;9.026;2023-05-29T17:28:33;22.20;1.00
30150;DHT22;16962;48.646;9.026;2023-05-29T17:31:20;22.10;1.00
30150;DHT22;16962;48.646;9.026;2023-05-29T17:34:08;22.00;1.00
30150;DHT22;16962;48.646;9.026;2023-05-29T17:36:56;21.90;1.00
30150;DHT22;16962;48.646;9.026;2023-05-29T17:39:45;21.90;1.00
30150;DHT22;16962;48.646;9.026;2023-05-29T17:42:34;21.90;1.00
30150;DHT22;16962;48.646;9.026;2023-05-29T17:45:21;21.80;1.00
30150;DHT22;16962;48.646;9.026;2023-05-29T17:48:10;21.70;1.00
30150;DHT22;16962;48.646;9.026;2023-05-29T17:51:00;21.60;1.00
30150;DHT22;16962;48.646;9.026;2023-05-29T17:53:48;21.50;1.00
30150;DHT22;16962;48.646;9.026;2023-05-29T17:56:41;21.50;1.00
30150;DHT22;16962;48.646;9.026;2023-05-29T17:59:29;21.50;1.00
30150;DHT22;16962;48.646;9.026;2023-05-29T18:02:18;21.30;1.00
30150;DHT22;16962;48.646;9.026;2023-05-29T18:05:05;21.30;1.00
30150;DHT22;16962;48.646;9.026;2023-05-29T18:07:53;21.20;1.00
30150;DHT22;16962;48.646;9.026;2023-05-29T18:10:42;21.20;1.00
30150;DHT22;16962;48.646;9.026;2023-05-29T18:13:32;21.10;1.00
30150;DHT22;16962;48.646;9.026;2023-05-29T18:16:20;21.00;1.00
30150;DHT22;16962;48.646;9.026;2023-05-29T18:19:07;21.00;1.00
30150;DHT22;16962;48.646;9.026;2023-05-29T18:21:55;20.90;1.00
30150;DHT22;16962;48.646;9.026;2023-05-29T18:24:46;20.70;1.00
30150;DHT22;16962;48.646;9.026;2023-05-29T18:27:33;20.60;1.00
30150;DHT22;16962;48.646;9.026;2023-05-29T18:30:20;20.60;1.00
30150;DHT22;16962;48.646;9.026;2023-05-29T18:33:07;20.40;1.00
30150;DHT22;16962;48.646;9.026;2023-05-29T18:35:55;20.30;1.00
30150;DHT22;16962;48.646;9.026;2023-05-29T18:38:43;20.20;1.00
30150;DHT22;16962;48.646;9.026;2023-05-29T18:41:30;20.10;1.00
30150;DHT22;16962;48.646;9.026;2023-05-29T18:44:18;20.00;1.00